sensor_id;sensor_type;location;lat;lon;timestamp;temperature;humidity
79244;SHT31;68672;42.676;23.356;2023-08-07T00:00:50;20.05;60.79
79244;SHT31;68672;42.676;23.356;2023-08-07T00:03:18;20.04;61.06
79244;SHT31;68672;42.676;23.356;2023-08-07T00:05:47;20.00;61.20
79244;SHT31;68672;42.676;23.356;2023-08-07T00:08:13;19.97;61.28
79244;SHT31;68672;42.676;23.356;2023-08-07T00:10:41;19.90;61.46
79244;SHT31;68672;42.676;23.356;2023-08-07T00:13:07;19.88;61.51
79244;SHT31;68672;42.676;23.356;2023-08-07T00:15:32;19.86;61.64
79244;SHT31;68672;42.676;23.356;2023-08-07T00:18:00;19.87;61.56
79244;SHT31;68672;42.676;23.356;2023-08-07T00:20:28;19.84;61.60
79244;SHT31;68672;42.676;23.356;2023-08-07T00:22:57;19.81;61.90
79244;SHT31;68672;42.676;23.356;2023-08-07T00:25:22;19.76;62.12
79244;SHT31;68672;42.676;23.356;2023-08-07T00:27:50;19.71;62.02
79244;SHT31;68672;42.676;23.356;2023-08-07T00:30:16;19.70;62.04
79244;SHT31;68672;42.676;23.356;2023-08-07T00:32:41;19.71;61.88
79244;SHT31;68672;42.676;23.356;2023-08-07T00:35:07;19.76;61.93
79244;SHT31;68672;42.676;23.356;2023-08-07T00:37:33;19.77;61.62
79244;SHT31;68672;42.676;23.356;2023-08-07T00:39:59;19.76;61.48
79244;SHT31;68672;42.676;23.356;2023-08-07T00:42:24;19.73;61.45
79244;SHT31;68672;42.676;23.356;2023-08-07T00:44:50;19.73;61.23
79244;SHT31;68672;42.676;23.356;2023-08-07T00:47:18;19.76;61.10
79244;SHT31;68672;42.676;23.356;2023-08-07T00:49:44;19.71;61.14
79244;SHT31;68672;42.676;23.356;2023-08-07T00:52:09;19.76;60.87
79244;SHT31;68672;42.676;23.356;2023-08-07T00:54:35;19.74;60.73
79244;SHT31;68672;42.676;23.356;2023-08-07T00:57:12;19.77;61.21
79244;SHT31;68672;42.676;23.356;2023-08-07T00:59:40;19.74;61.17
79244;SHT31;68672;42.676;23.356;2023-08-07T01:02:12;19.71;61.36
79244;SHT31;68672;42.676;23.356;2023-08-07T01:04:39;19.73;61.25
79244;SHT31;68672;42.676;23.356;2023-08-07T01:07:04;19.69;61.13
79244;SHT31;68672;42.676;23.356;2023-08-07T01:09:30;19.67;61.22
79244;SHT31;68672;42.676;23.356;2023-08-07T01:14:55;19.65;61.59
79244;SHT31;68672;42.676;23.356;2023-08-07T01:17:24;19.66;62.02
79244;SHT31;68672;42.676;23.356;2023-08-07T01:19:51;19.62;61.94
79244;SHT31;68672;42.676;23.356;2023-08-07T01:22:18;19.53;62.08
79244;SHT31;68672;42.676;23.356;2023-08-07T01:24:50;19.47;62.41
79244;SHT31;68672;42.676;23.356;2023-08-07T01:27:35;19.45;62.71
79244;SHT31;68672;42.676;23.356;2023-08-07T01:30:12;19.45;62.40
79244;SHT31;68672;42.676;23.356;2023-08-07T01:32:49;19.43;62.31
79244;SHT31;68672;42.676;23.356;2023-08-07T01:35:16;19.39;62.48
79244;SHT31;68672;42.676;23.356;2023-08-07T01:37:43;19.35;62.57
79244;SHT31;68672;42.676;23.356;2023-08-07T01:40:13;19.32;62.91
79244;SHT31;68672;42.676;23.356;2023-08-07T01:42:41;19.26;62.95
79244;SHT31;68672;42.676;23.356;2023-08-07T01:45:08;19.26;62.91
79244;SHT31;68672;42.676;23.356;2023-08-07T01:47:34;19.20;63.03
79244;SHT31;68672;42.676;23.356;2023-08-07T01:49:59;19.20;63.09
79244;SHT31;68672;42.676;23.356;2023-08-07T01:52:25;19.18;63.11
79244;SHT31;68672;42.676;23.356;2023-08-07T01:54:53;19.15;63.26
79244;SHT31;68672;42.676;23.356;2023-08-07T01:57:19;19.14;63.26
79244;SHT31;68672;42.676;23.356;2023-08-07T01:59:44;19.14;63.39
79244;SHT31;68672;42.676;23.356;2023-08-07T02:02:10;19.16;63.43
79244;SHT31;68672;42.676;23.356;2023-08-07T02:04:35;19.15;63.48
79244;SHT31;68672;42.676;23.356;2023-08-07T02:07:00;19.19;63.52
79244;SHT31;68672;42.676;23.356;2023-08-07T02:09:26;19.12;63.74
79244;SHT31;68672;42.676;23.356;2023-08-07T02:11:51;19.14;63.69
79244;SHT31;68672;42.676;23.356;2023-08-07T02:14:19;19.12;63.75
79244;SHT31;68672;42.676;23.356;2023-08-07T02:16:51;19.01;64.12
79244;SHT31;68672;42.676;23.356;2023-08-07T02:19:16;19.04;64.04
79244;SHT31;68672;42.676;23.356;2023-08-07T02:21:42;19.05;63.97
79244;SHT31;68672;42.676;23.356;2023-08-07T02:24:07;19.01;64.14
79244;SHT31;68672;42.676;23.356;2023-08-07T02:26:32;18.98;64.33
79244;SHT31;68672;42.676;23.356;2023-08-07T02:28:58;19.01;64.34
79244;SHT31;68672;42.676;23.356;2023-08-07T02:31:23;19.02;64.36
79244;SHT31;68672;42.676;23.356;2023-08-07T02:33:51;18.99;64.79
79244;SHT31;68672;42.676;23.356;2023-08-07T02:36:17;18.98;64.59
79244;SHT31;68672;42.676;23.356;2023-08-07T02:38:42;19.04;64.44
79244;SHT31;68672;42.676;23.356;2023-08-07T02:41:10;19.01;64.46
79244;SHT31;68672;42.676;23.356;2023-08-07T02:43:36;18.99;64.48
79244;SHT31;68672;42.676;23.356;2023-08-07T02:46:01;19.04;64.65
79244;SHT31;68672;42.676;23.356;2023-08-07T02:48:27;19.02;64.83
79244;SHT31;68672;42.676;23.356;2023-08-07T02:50:52;18.95;64.70
79244;SHT31;68672;42.676;23.356;2023-08-07T02:53:18;18.92;64.87
79244;SHT31;68672;42.676;23.356;2023-08-07T02:55:44;18.92;64.84
79244;SHT31;68672;42.676;23.356;2023-08-07T02:58:09;18.91;64.88
79244;SHT31;68672;42.676;23.356;2023-08-07T03:00:35;18.88;65.07
79244;SHT31;68672;42.676;23.356;2023-08-07T03:03:06;18.91;64.99
79244;SHT31;68672;42.676;23.356;2023-08-07T03:05:31;18.89;64.98
79244;SHT31;68672;42.676;23.356;2023-08-07T03:07:59;18.87;64.99
79244;SHT31;68672;42.676;23.356;2023-08-07T03:10:25;18.91;64.79
79244;SHT31;68672;42.676;23.356;2023-08-07T03:12:50;18.87;64.95
79244;SHT31;68672;42.676;23.356;2023-08-07T03:15:16;18.85;64.78
79244;SHT31;68672;42.676;23.356;2023-08-07T03:17:42;18.81;64.87
79244;SHT31;68672;42.676;23.356;2023-08-07T03:20:07;18.84;64.80
79244;SHT31;68672;42.676;23.356;2023-08-07T03:22:34;18.78;65.10
79244;SHT31;68672;42.676;23.356;2023-08-07T03:24:59;18.77;65.02
79244;SHT31;68672;42.676;23.356;2023-08-07T03:27:28;18.81;65.06
79244;SHT31;68672;42.676;23.356;2023-08-07T03:29:53;18.77;65.01
79244;SHT31;68672;42.676;23.356;2023-08-07T03:32:19;18.78;64.88
79244;SHT31;68672;42.676;23.356;2023-08-07T03:34:44;18.77;64.53
79244;SHT31;68672;42.676;23.356;2023-08-07T03:37:09;18.74;64.41
79244;SHT31;68672;42.676;23.356;2023-08-07T03:39:38;18.75;64.53
79244;SHT31;68672;42.676;23.356;2023-08-07T03:42:03;18.77;64.51
79244;SHT31;68672;42.676;23.356;2023-08-07T03:44:29;18.71;64.39
79244;SHT31;68672;42.676;23.356;2023-08-07T03:46:54;18.77;64.43
79244;SHT31;68672;42.676;23.356;2023-08-07T03:49:21;18.79;64.33
79244;SHT31;68672;42.676;23.356;2023-08-07T03:51:48;18.81;64.03
79244;SHT31;68672;42.676;23.356;2023-08-07T03:54:16;18.78;63.73
79244;SHT31;68672;42.676;23.356;2023-08-07T03:56:42;18.75;63.37
79244;SHT31;68672;42.676;23.356;2023-08-07T03:59:10;18.75;63.27
79244;SHT31;68672;42.676;23.356;2023-08-07T04:01:35;18.75;63.27
79244;SHT31;68672;42.676;23.356;2023-08-07T04:04:00;18.74;63.16
79244;SHT31;68672;42.676;23.356;2023-08-07T04:06:26;18.71;63.45
79244;SHT31;68672;42.676;23.356;2023-08-07T04:08:52;18.71;63.12
79244;SHT31;68672;42.676;23.356;2023-08-07T04:11:17;18.72;63.21
79244;SHT31;68672;42.676;23.356;2023-08-07T04:13:43;18.71;63.11
79244;SHT31;68672;42.676;23.356;2023-08-07T04:16:08;18.71;62.98
79244;SHT31;68672;42.676;23.356;2023-08-07T04:18:34;18.74;63.10
79244;SHT31;68672;42.676;23.356;2023-08-07T04:20:59;18.78;63.09
79244;SHT31;68672;42.676;23.356;2023-08-07T04:23:25;18.78;63.07
79244;SHT31;68672;42.676;23.356;2023-08-07T04:25:51;18.75;63.06
79244;SHT31;68672;42.676;23.356;2023-08-07T04:28:20;18.79;63.15
79244;SHT31;68672;42.676;23.356;2023-08-07T04:30:49;18.85;62.90
79244;SHT31;68672;42.676;23.356;2023-08-07T04:33:19;18.88;62.78
79244;SHT31;68672;42.676;23.356;2023-08-07T04:35:44;18.92;62.87
79244;SHT31;68672;42.676;23.356;2023-08-07T04:38:12;18.99;62.47
79244;SHT31;68672;42.676;23.356;2023-08-07T04:40:43;19.08;62.32
79244;SHT31;68672;42.676;23.356;2023-08-07T04:43:09;19.06;62.16
79244;SHT31;68672;42.676;23.356;2023-08-07T04:45:34;19.11;61.86
79244;SHT31;68672;42.676;23.356;2023-08-07T04:48:00;19.16;61.90
79244;SHT31;68672;42.676;23.356;2023-08-07T04:50:29;19.16;61.72
79244;SHT31;68672;42.676;23.356;2023-08-07T04:52:54;19.22;61.46
79244;SHT31;68672;42.676;23.356;2023-08-07T04:55:19;19.29;61.05
79244;SHT31;68672;42.676;23.356;2023-08-07T04:57:45;19.33;61.17
79244;SHT31;68672;42.676;23.356;2023-08-07T05:00:12;19.35;61.23
79244;SHT31;68672;42.676;23.356;2023-08-07T05:02:39;19.40;60.96
79244;SHT31;68672;42.676;23.356;2023-08-07T05:05:04;19.39;60.44
79244;SHT31;68672;42.676;23.356;2023-08-07T05:07:33;19.42;59.94
79244;SHT31;68672;42.676;23.356;2023-08-07T05:09:58;19.43;60.04
79244;SHT31;68672;42.676;23.356;2023-08-07T05:12:25;19.46;60.39
79244;SHT31;68672;42.676;23.356;2023-08-07T05:14:50;19.50;60.16
79244;SHT31;68672;42.676;23.356;2023-08-07T05:17:15;19.52;60.25
79244;SHT31;68672;42.676;23.356;2023-08-07T05:19:41;19.50;59.93
79244;SHT31;68672;42.676;23.356;2023-08-07T05:22:06;19.55;59.71
79244;SHT31;68672;42.676;23.356;2023-08-07T05:24:32;19.50;59.80
79244;SHT31;68672;42.676;23.356;2023-08-07T05:27:07;19.50;59.66
79244;SHT31;68672;42.676;23.356;2023-08-07T05:29:34;19.62;59.66
79244;SHT31;68672;42.676;23.356;2023-08-07T05:32:02;19.70;59.57
79244;SHT31;68672;42.676;23.356;2023-08-07T05:34:28;19.77;59.95
79244;SHT31;68672;42.676;23.356;2023-08-07T05:36:54;19.78;59.78
79244;SHT31;68672;42.676;23.356;2023-08-07T05:39:19;19.84;59.53
79244;SHT31;68672;42.676;23.356;2023-08-07T05:41:48;19.93;59.25
79244;SHT31;68672;42.676;23.356;2023-08-07T05:44:13;19.98;58.55
79244;SHT31;68672;42.676;23.356;2023-08-07T05:46:41;20.03;57.97
79244;SHT31;68672;42.676;23.356;2023-08-07T05:49:07;20.11;58.17
79244;SHT31;68672;42.676;23.356;2023-08-07T05:51:32;20.10;57.84
79244;SHT31;68672;42.676;23.356;2023-08-07T05:53:58;20.13;57.96
79244;SHT31;68672;42.676;23.356;2023-08-07T05:56:23;20.13;58.04
79244;SHT31;68672;42.676;23.356;2023-08-07T05:58:51;20.17;56.87
79244;SHT31;68672;42.676;23.356;2023-08-07T06:01:16;20.13;57.11
79244;SHT31;68672;42.676;23.356;2023-08-07T06:03:43;20.14;56.94
79244;SHT31;68672;42.676;23.356;2023-08-07T06:06:08;20.17;56.96
79244;SHT31;68672;42.676;23.356;2023-08-07T06:08:34;20.18;56.70
79244;SHT31;68672;42.676;23.356;2023-08-07T06:10:59;20.22;56.55
79244;SHT31;68672;42.676;23.356;2023-08-07T06:13:28;20.26;56.49
79244;SHT31;68672;42.676;23.356;2023-08-07T06:15:54;20.31;56.66
79244;SHT31;68672;42.676;23.356;2023-08-07T06:18:19;20.39;56.72
79244;SHT31;68672;42.676;23.356;2023-08-07T06:20:45;20.42;56.19
79244;SHT31;68672;42.676;23.356;2023-08-07T06:23:11;20.49;56.00
79244;SHT31;68672;42.676;23.356;2023-08-07T06:25:37;20.59;56.34
79244;SHT31;68672;42.676;23.356;2023-08-07T06:28:02;20.65;54.97
79244;SHT31;68672;42.676;23.356;2023-08-07T06:30:28;20.69;54.56
79244;SHT31;68672;42.676;23.356;2023-08-07T06:32:53;20.73;54.74
79244;SHT31;68672;42.676;23.356;2023-08-07T06:35:19;20.79;54.43
79244;SHT31;68672;42.676;23.356;2023-08-07T06:37:44;20.89;54.37
79244;SHT31;68672;42.676;23.356;2023-08-07T06:40:10;20.90;53.95
79244;SHT31;68672;42.676;23.356;2023-08-07T06:42:36;21.00;52.43
79244;SHT31;68672;42.676;23.356;2023-08-07T06:45:01;21.10;52.05
79244;SHT31;68672;42.676;23.356;2023-08-07T06:47:29;21.11;51.58
79244;SHT31;68672;42.676;23.356;2023-08-07T06:49:55;21.22;51.63
79244;SHT31;68672;42.676;23.356;2023-08-07T06:52:20;21.30;52.10
79244;SHT31;68672;42.676;23.356;2023-08-07T06:54:45;21.30;50.39
79244;SHT31;68672;42.676;23.356;2023-08-07T06:57:11;21.38;50.54
79244;SHT31;68672;42.676;23.356;2023-08-07T06:59:37;21.45;50.22
79244;SHT31;68672;42.676;23.356;2023-08-07T07:02:03;21.51;49.87
79244;SHT31;68672;42.676;23.356;2023-08-07T07:04:29;21.57;49.33
79244;SHT31;68672;42.676;23.356;2023-08-07T07:06:54;21.69;49.15
79244;SHT31;68672;42.676;23.356;2023-08-07T07:09:20;21.75;49.00
79244;SHT31;68672;42.676;23.356;2023-08-07T07:11:56;21.85;48.07
79244;SHT31;68672;42.676;23.356;2023-08-07T07:14:21;21.89;47.35
79244;SHT31;68672;42.676;23.356;2023-08-07T07:16:47;21.92;47.17
79244;SHT31;68672;42.676;23.356;2023-08-07T07:19:13;21.99;47.73
79244;SHT31;68672;42.676;23.356;2023-08-07T07:21:38;22.08;47.79
79244;SHT31;68672;42.676;23.356;2023-08-07T07:24:04;22.08;47.95
79244;SHT31;68672;42.676;23.356;2023-08-07T07:26:30;22.16;47.92
79244;SHT31;68672;42.676;23.356;2023-08-07T07:28:55;22.24;48.40
79244;SHT31;68672;42.676;23.356;2023-08-07T07:31:21;22.35;48.68
79244;SHT31;68672;42.676;23.356;2023-08-07T07:33:47;22.43;47.31
79244;SHT31;68672;42.676;23.356;2023-08-07T07:36:17;22.47;47.35
79244;SHT31;68672;42.676;23.356;2023-08-07T07:38:45;22.50;46.80
79244;SHT31;68672;42.676;23.356;2023-08-07T07:41:14;22.53;47.02
79244;SHT31;68672;42.676;23.356;2023-08-07T07:43:41;22.61;46.40
79244;SHT31;68672;42.676;23.356;2023-08-07T07:46:07;22.65;45.74
79244;SHT31;68672;42.676;23.356;2023-08-07T07:48:32;22.77;45.70
79244;SHT31;68672;42.676;23.356;2023-08-07T07:51:04;22.83;45.97
79244;SHT31;68672;42.676;23.356;2023-08-07T07:53:30;22.95;46.14
79244;SHT31;68672;42.676;23.356;2023-08-07T07:55:58;23.04;45.69
79244;SHT31;68672;42.676;23.356;2023-08-07T07:58:24;23.12;44.96
79244;SHT31;68672;42.676;23.356;2023-08-07T08:00:49;23.19;44.79
79244;SHT31;68672;42.676;23.356;2023-08-07T08:03:18;23.35;44.38
79244;SHT31;68672;42.676;23.356;2023-08-07T08:05:44;23.39;44.24
79244;SHT31;68672;42.676;23.356;2023-08-07T08:08:09;23.43;44.79
79244;SHT31;68672;42.676;23.356;2023-08-07T08:10:35;23.49;44.63
79244;SHT31;68672;42.676;23.356;2023-08-07T08:13:01;23.58;44.45
79244;SHT31;68672;42.676;23.356;2023-08-07T08:15:29;23.72;43.96
79244;SHT31;68672;42.676;23.356;2023-08-07T08:17:54;23.79;43.73
79244;SHT31;68672;42.676;23.356;2023-08-07T08:20:20;23.81;43.11
79244;SHT31;68672;42.676;23.356;2023-08-07T08:22:46;23.89;43.23
79244;SHT31;68672;42.676;23.356;2023-08-07T08:25:12;23.97;43.17
79244;SHT31;68672;42.676;23.356;2023-08-07T08:27:38;24.10;42.79
79244;SHT31;68672;42.676;23.356;2023-08-07T08:30:04;24.21;41.92
79244;SHT31;68672;42.676;23.356;2023-08-07T08:32:30;24.24;40.96
79244;SHT31;68672;42.676;23.356;2023-08-07T08:34:56;24.31;41.04
79244;SHT31;68672;42.676;23.356;2023-08-07T08:37:21;24.40;41.18
79244;SHT31;68672;42.676;23.356;2023-08-07T08:39:52;24.51;41.07
79244;SHT31;68672;42.676;23.356;2023-08-07T08:42:23;24.61;40.13
79244;SHT31;68672;42.676;23.356;2023-08-07T08:44:53;24.67;40.31
79244;SHT31;68672;42.676;23.356;2023-08-07T08:47:18;24.76;39.81
79244;SHT31;68672;42.676;23.356;2023-08-07T08:50:00;24.82;39.75
79244;SHT31;68672;42.676;23.356;2023-08-07T08:52:31;24.86;39.84
79244;SHT31;68672;42.676;23.356;2023-08-07T08:54:57;24.88;40.07
79244;SHT31;68672;42.676;23.356;2023-08-07T08:57:24;25.00;40.94
79244;SHT31;68672;42.676;23.356;2023-08-07T08:59:50;25.02;40.28
79244;SHT31;68672;42.676;23.356;2023-08-07T09:02:17;25.10;39.33
79244;SHT31;68672;42.676;23.356;2023-08-07T09:04:44;25.13;40.26
79244;SHT31;68672;42.676;23.356;2023-08-07T09:07:10;25.15;39.32
79244;SHT31;68672;42.676;23.356;2023-08-07T09:09:36;25.23;39.79
79244;SHT31;68672;42.676;23.356;2023-08-07T09:12:05;25.33;40.11
79244;SHT31;68672;42.676;23.356;2023-08-07T09:14:33;25.46;39.59
79244;SHT31;68672;42.676;23.356;2023-08-07T09:17:01;25.61;39.36
79244;SHT31;68672;42.676;23.356;2023-08-07T09:19:26;25.73;39.46
79244;SHT31;68672;42.676;23.356;2023-08-07T09:21:52;25.88;39.17
79244;SHT31;68672;42.676;23.356;2023-08-07T09:24:18;26.02;38.67
79244;SHT31;68672;42.676;23.356;2023-08-07T09:26:47;26.15;38.52
79244;SHT31;68672;42.676;23.356;2023-08-07T09:29:13;26.29;37.99
79244;SHT31;68672;42.676;23.356;2023-08-07T09:31:43;26.40;38.11
79244;SHT31;68672;42.676;23.356;2023-08-07T09:34:10;26.52;37.87
79244;SHT31;68672;42.676;23.356;2023-08-07T09:36:37;26.61;37.69
79244;SHT31;68672;42.676;23.356;2023-08-07T09:39:04;26.75;37.60
79244;SHT31;68672;42.676;23.356;2023-08-07T09:41:30;26.88;37.59
79244;SHT31;68672;42.676;23.356;2023-08-07T09:43:56;26.88;36.31
79244;SHT31;68672;42.676;23.356;2023-08-07T09:46:22;27.00;36.50
79244;SHT31;68672;42.676;23.356;2023-08-07T09:48:48;27.03;35.99
79244;SHT31;68672;42.676;23.356;2023-08-07T09:51:13;27.01;36.01
79244;SHT31;68672;42.676;23.356;2023-08-07T09:53:39;27.06;36.20
79244;SHT31;68672;42.676;23.356;2023-08-07T09:56:06;27.15;36.92
79244;SHT31;68672;42.676;23.356;2023-08-07T09:58:31;27.20;36.52
79244;SHT31;68672;42.676;23.356;2023-08-07T10:01:03;27.27;35.85
79244;SHT31;68672;42.676;23.356;2023-08-07T10:03:29;27.35;35.87
79244;SHT31;68672;42.676;23.356;2023-08-07T10:05:55;27.45;35.83
79244;SHT31;68672;42.676;23.356;2023-08-07T10:08:24;27.59;35.90
79244;SHT31;68672;42.676;23.356;2023-08-07T10:10:53;27.75;35.89
79244;SHT31;68672;42.676;23.356;2023-08-07T10:13:18;27.88;35.60
79244;SHT31;68672;42.676;23.356;2023-08-07T10:15:45;28.02;35.22
79244;SHT31;68672;42.676;23.356;2023-08-07T10:31:22;29.20;33.08
79244;SHT31;68672;42.676;23.356;2023-08-07T10:33:48;29.27;33.00
79244;SHT31;68672;42.676;23.356;2023-08-07T10:36:18;29.27;33.06
79244;SHT31;68672;42.676;23.356;2023-08-07T10:38:44;29.29;33.12
79244;SHT31;68672;42.676;23.356;2023-08-07T10:41:12;29.34;32.83
79244;SHT31;68672;42.676;23.356;2023-08-07T10:43:43;29.34;33.42
79244;SHT31;68672;42.676;23.356;2023-08-07T10:46:09;29.42;33.52
79244;SHT31;68672;42.676;23.356;2023-08-07T10:48:47;29.49;33.31
79244;SHT31;68672;42.676;23.356;2023-08-07T10:51:17;29.60;32.54
79244;SHT31;68672;42.676;23.356;2023-08-07T10:53:49;29.62;32.20
79244;SHT31;68672;42.676;23.356;2023-08-07T10:56:33;29.63;31.89
79244;SHT31;68672;42.676;23.356;2023-08-07T10:59:11;29.57;31.88
79244;SHT31;68672;42.676;23.356;2023-08-07T11:01:42;29.54;32.22
79244;SHT31;68672;42.676;23.356;2023-08-07T11:04:12;29.63;32.83
79244;SHT31;68672;42.676;23.356;2023-08-07T11:06:40;29.67;33.05
79244;SHT31;68672;42.676;23.356;2023-08-07T11:09:07;29.78;33.09
79244;SHT31;68672;42.676;23.356;2023-08-07T11:14:06;30.14;31.85
79244;SHT31;68672;42.676;23.356;2023-08-07T11:16:32;30.29;31.66
79244;SHT31;68672;42.676;23.356;2023-08-07T11:18:58;30.46;31.19
79244;SHT31;68672;42.676;23.356;2023-08-07T11:21:25;30.63;30.90
79244;SHT31;68672;42.676;23.356;2023-08-07T11:23:51;30.61;30.81
79244;SHT31;68672;42.676;23.356;2023-08-07T11:26:17;30.78;30.20
79244;SHT31;68672;42.676;23.356;2023-08-07T11:28:42;30.92;30.21
79244;SHT31;68672;42.676;23.356;2023-08-07T11:31:08;31.06;29.71
79244;SHT31;68672;42.676;23.356;2023-08-07T11:33:35;31.11;29.87
79244;SHT31;68672;42.676;23.356;2023-08-07T11:36:01;30.99;30.14
79244;SHT31;68672;42.676;23.356;2023-08-07T11:39:02;30.83;30.37
79244;SHT31;68672;42.676;23.356;2023-08-07T11:41:21;30.59;31.00
79244;SHT31;68672;42.676;23.356;2023-08-07T11:43:47;30.35;31.35
79244;SHT31;68672;42.676;23.356;2023-08-07T11:46:14;30.05;32.11
79244;SHT31;68672;42.676;23.356;2023-08-07T11:48:41;29.84;31.66
79244;SHT31;68672;42.676;23.356;2023-08-07T11:51:07;29.66;31.86
79244;SHT31;68672;42.676;23.356;2023-08-07T11:53:37;29.77;31.95
79244;SHT31;68672;42.676;23.356;2023-08-07T11:56:08;30.27;32.24
79244;SHT31;68672;42.676;23.356;2023-08-07T11:58:36;30.52;31.35
79244;SHT31;68672;42.676;23.356;2023-08-07T12:01:23;30.72;31.13
79244;SHT31;68672;42.676;23.356;2023-08-07T12:03:56;30.82;31.61
79244;SHT31;68672;42.676;23.356;2023-08-07T12:06:23;30.93;31.01
79244;SHT31;68672;42.676;23.356;2023-08-07T12:08:54;31.16;31.17
79244;SHT31;68672;42.676;23.356;2023-08-07T12:11:20;31.26;30.72
79244;SHT31;68672;42.676;23.356;2023-08-07T12:13:48;31.26;29.87
79244;SHT31;68672;42.676;23.356;2023-08-07T12:16:15;31.21;30.37
79244;SHT31;68672;42.676;23.356;2023-08-07T12:18:51;31.14;30.65
79244;SHT31;68672;42.676;23.356;2023-08-07T12:21:19;31.13;30.25
79244;SHT31;68672;42.676;23.356;2023-08-07T12:23:45;30.96;30.52
79244;SHT31;68672;42.676;23.356;2023-08-07T12:26:15;30.87;31.10
79244;SHT31;68672;42.676;23.356;2023-08-07T12:28:40;30.89;31.01
79244;SHT31;68672;42.676;23.356;2023-08-07T12:31:06;30.94;30.74
79244;SHT31;68672;42.676;23.356;2023-08-07T12:33:32;30.83;31.48
79244;SHT31;68672;42.676;23.356;2023-08-07T12:35:59;30.68;31.92
79244;SHT31;68672;42.676;23.356;2023-08-07T12:38:24;30.48;32.01
79244;SHT31;68672;42.676;23.356;2023-08-07T12:40:50;30.31;32.12
79244;SHT31;68672;42.676;23.356;2023-08-07T12:43:16;30.14;32.51
79244;SHT31;68672;42.676;23.356;2023-08-07T12:45:42;29.94;32.85
79244;SHT31;68672;42.676;23.356;2023-08-07T12:48:07;29.83;32.97
79244;SHT31;68672;42.676;23.356;2023-08-07T12:50:33;29.72;33.36
79244;SHT31;68672;42.676;23.356;2023-08-07T12:53:01;29.64;33.72
79244;SHT31;68672;42.676;23.356;2023-08-07T12:55:27;29.69;33.75
79244;SHT31;68672;42.676;23.356;2023-08-07T12:57:54;29.52;34.08
79244;SHT31;68672;42.676;23.356;2023-08-07T13:00:20;29.33;33.95
79244;SHT31;68672;42.676;23.356;2023-08-07T13:02:47;29.29;34.42
79244;SHT31;68672;42.676;23.356;2023-08-07T13:05:13;29.22;35.01
79244;SHT31;68672;42.676;23.356;2023-08-07T13:07:40;29.06;35.54
79244;SHT31;68672;42.676;23.356;2023-08-07T13:10:07;28.96;35.57
79244;SHT31;68672;42.676;23.356;2023-08-07T13:12:37;28.84;35.17
79244;SHT31;68672;42.676;23.356;2023-08-07T13:15:03;28.79;35.59
79244;SHT31;68672;42.676;23.356;2023-08-07T13:17:36;28.69;36.05
79244;SHT31;68672;42.676;23.356;2023-08-07T13:20:02;28.61;36.27
79244;SHT31;68672;42.676;23.356;2023-08-07T13:22:34;28.51;36.17
79244;SHT31;68672;42.676;23.356;2023-08-07T13:24:59;28.27;36.44
79244;SHT31;68672;42.676;23.356;2023-08-07T13:27:24;28.07;36.97
79244;SHT31;68672;42.676;23.356;2023-08-07T13:29:52;28.00;37.17
79244;SHT31;68672;42.676;23.356;2023-08-07T13:32:17;27.95;37.49
79244;SHT31;68672;42.676;23.356;2023-08-07T13:34:45;27.86;37.30
79244;SHT31;68672;42.676;23.356;2023-08-07T13:37:11;27.81;37.50
79244;SHT31;68672;42.676;23.356;2023-08-07T13:39:39;27.82;37.58
79244;SHT31;68672;42.676;23.356;2023-08-07T13:42:04;27.81;38.12
79244;SHT31;68672;42.676;23.356;2023-08-07T13:44:30;27.76;38.34
79244;SHT31;68672;42.676;23.356;2023-08-07T13:46:55;27.75;38.24
79244;SHT31;68672;42.676;23.356;2023-08-07T13:49:21;27.67;38.12
79244;SHT31;68672;42.676;23.356;2023-08-07T13:51:48;27.62;38.29
79244;SHT31;68672;42.676;23.356;2023-08-07T13:54:14;27.52;38.31
79244;SHT31;68672;42.676;23.356;2023-08-07T13:56:39;27.35;38.85
79244;SHT31;68672;42.676;23.356;2023-08-07T13:59:05;27.25;39.28
79244;SHT31;68672;42.676;23.356;2023-08-07T14:01:35;27.20;39.46
79244;SHT31;68672;42.676;23.356;2023-08-07T14:04:01;27.06;39.43
79244;SHT31;68672;42.676;23.356;2023-08-07T14:06:27;27.03;39.57
79244;SHT31;68672;42.676;23.356;2023-08-07T14:08:52;27.07;39.76
79244;SHT31;68672;42.676;23.356;2023-08-07T14:11:18;27.00;39.73
79244;SHT31;68672;42.676;23.356;2023-08-07T14:13:44;26.96;39.65
79244;SHT31;68672;42.676;23.356;2023-08-07T14:16:11;26.93;39.75
79244;SHT31;68672;42.676;23.356;2023-08-07T14:18:37;26.86;39.95
79244;SHT31;68672;42.676;23.356;2023-08-07T14:21:05;26.80;39.73
79244;SHT31;68672;42.676;23.356;2023-08-07T14:23:33;26.76;39.68
79244;SHT31;68672;42.676;23.356;2023-08-07T14:25:58;26.67;39.31
79244;SHT31;68672;42.676;23.356;2023-08-07T14:28:24;26.67;39.44
79244;SHT31;68672;42.676;23.356;2023-08-07T14:30:56;26.53;39.97
79244;SHT31;68672;42.676;23.356;2023-08-07T14:33:22;26.42;39.78
79244;SHT31;68672;42.676;23.356;2023-08-07T14:35:47;26.33;39.81
79244;SHT31;68672;42.676;23.356;2023-08-07T14:38:12;26.25;40.07
79244;SHT31;68672;42.676;23.356;2023-08-07T14:40:38;26.21;40.32
79244;SHT31;68672;42.676;23.356;2023-08-07T14:43:06;26.12;40.63
79244;SHT31;68672;42.676;23.356;2023-08-07T14:45:32;26.11;40.44
79244;SHT31;68672;42.676;23.356;2023-08-07T14:48:00;26.02;40.56
79244;SHT31;68672;42.676;23.356;2023-08-07T14:50:28;25.95;40.75
79244;SHT31;68672;42.676;23.356;2023-08-07T14:52:56;25.91;41.36
79244;SHT31;68672;42.676;23.356;2023-08-07T14:55:21;25.82;41.32
79244;SHT31;68672;42.676;23.356;2023-08-07T14:57:47;25.71;41.56
79244;SHT31;68672;42.676;23.356;2023-08-07T15:00:15;25.66;41.94
79244;SHT31;68672;42.676;23.356;2023-08-07T15:02:42;25.60;42.21
79244;SHT31;68672;42.676;23.356;2023-08-07T15:05:07;25.54;42.25
79244;SHT31;68672;42.676;23.356;2023-08-07T15:07:33;25.47;42.29
79244;SHT31;68672;42.676;23.356;2023-08-07T15:09:59;25.39;42.42
79244;SHT31;68672;42.676;23.356;2023-08-07T15:12:25;25.31;42.35
79244;SHT31;68672;42.676;23.356;2023-08-07T15:14:51;25.30;42.53
79244;SHT31;68672;42.676;23.356;2023-08-07T15:17:19;25.30;42.65
79244;SHT31;68672;42.676;23.356;2023-08-07T15:19:44;25.24;42.93
79244;SHT31;68672;42.676;23.356;2023-08-07T15:22:09;25.22;42.99
79244;SHT31;68672;42.676;23.356;2023-08-07T15:24:35;25.18;43.37
79244;SHT31;68672;42.676;23.356;2023-08-07T15:27:00;25.13;43.38
79244;SHT31;68672;42.676;23.356;2023-08-07T15:29:26;25.06;43.50
79244;SHT31;68672;42.676;23.356;2023-08-07T15:31:51;24.99;43.70